sensor_id;sensor_type;location;lat;lon;timestamp;P1;durP1;ratioP1;P2;durP2;ratioP2
54909;SDS011;63189;51.240;9.964;2024-02-28T00:02:08;43.15;;;26.05;;
54909;SDS011;63189;51.240;9.964;2024-02-28T00:04:34;43.95;;;27.73;;
54909;SDS011;63189;51.240;9.964;2024-02-28T00:06:59;42.30;;;26.05;;
54909;SDS011;63189;51.240;9.964;2024-02-28T00:09:25;42.90;;;27.20;;
54909;SDS011;63189;51.240;9.964;2024-02-28T00:11:50;41.22;;;26.23;;
54909;SDS011;63189;51.240;9.964;2024-02-28T00:14:15;43.85;;;26.75;;
54909;SDS011;63189;51.240;9.964;2024-02-28T00:16:41;40.72;;;24.63;;
54909;SDS011;63189;51.240;9.964;2024-02-28T00:19:07;41.85;;;25.73;;
54909;SDS011;63189;51.240;9.964;2024-02-28T00:21:32;39.25;;;23.45;;
54909;SDS011;63189;51.240;9.964;2024-02-28T00:23:58;38.33;;;23.55;;
54909;SDS011;63189;51.240;9.964;2024-02-28T00:26:23;42.90;;;26.23;;
54909;SDS011;63189;51.240;9.964;2024-02-28T00:28:48;44.97;;;27.85;;
54909;SDS011;63189;51.240;9.964;2024-02-28T00:31:14;41.22;;;25.08;;
54909;SDS011;63189;51.240;9.964;2024-02-28T00:33:39;35.67;;;23.15;;
54909;SDS011;63189;51.240;9.964;2024-02-28T00:36:04;40.22;;;25.10;;
54909;SDS011;63189;51.240;9.964;2024-02-28T00:38:30;42.15;;;26.67;;
54909;SDS011;63189;51.240;9.964;2024-02-28T00:40:55;35.65;;;23.25;;
54909;SDS011;63189;51.240;9.964;2024-02-28T00:43:20;39.90;;;25.85;;
54909;SDS011;63189;51.240;9.964;2024-02-28T00:45:46;39.92;;;26.63;;
54909;SDS011;63189;51.240;9.964;2024-02-28T00:48:11;37.40;;;23.52;;
54909;SDS011;63189;51.240;9.964;2024-02-28T00:50:36;37.15;;;24.05;;
54909;SDS011;63189;51.240;9.964;2024-02-28T00:53:02;38.92;;;24.92;;
54909;SDS011;63189;51.240;9.964;2024-02-28T00:55:27;38.97;;;25.42;;
54909;SDS011;63189;51.240;9.964;2024-02-28T00:57:53;33.78;;;20.63;;
54909;SDS011;63189;51.240;9.964;2024-02-28T01:00:18;30.70;;;19.65;;
54909;SDS011;63189;51.240;9.964;2024-02-28T01:02:44;37.85;;;24.05;;
54909;SDS011;63189;51.240;9.964;2024-02-28T01:05:09;37.20;;;23.85;;
54909;SDS011;63189;51.240;9.964;2024-02-28T01:07:34;38.35;;;23.60;;
54909;SDS011;63189;51.240;9.964;2024-02-28T01:10:00;36.72;;;23.13;;
54909;SDS011;63189;51.240;9.964;2024-02-28T01:12:25;40.33;;;25.27;;
54909;SDS011;63189;51.240;9.964;2024-02-28T01:14:51;39.22;;;23.52;;
54909;SDS011;63189;51.240;9.964;2024-02-28T01:17:16;40.45;;;25.80;;
54909;SDS011;63189;51.240;9.964;2024-02-28T01:19:42;42.88;;;25.75;;
54909;SDS011;63189;51.240;9.964;2024-02-28T01:22:07;44.60;;;26.45;;
54909;SDS011;63189;51.240;9.964;2024-02-28T01:24:33;41.97;;;25.95;;
54909;SDS011;63189;51.240;9.964;2024-02-28T01:26:59;43.75;;;25.25;;
54909;SDS011;63189;51.240;9.964;2024-02-28T01:29:24;47.38;;;27.73;;
54909;SDS011;63189;51.240;9.964;2024-02-28T01:31:50;50.45;;;29.52;;
54909;SDS011;63189;51.240;9.964;2024-02-28T01:34:15;38.30;;;24.02;;
54909;SDS011;63189;51.240;9.964;2024-02-28T01:36:41;35.13;;;22.45;;
54909;SDS011;63189;51.240;9.964;2024-02-28T01:39:06;40.15;;;24.45;;
54909;SDS011;63189;51.240;9.964;2024-02-28T01:41:31;36.13;;;22.85;;
54909;SDS011;63189;51.240;9.964;2024-02-28T01:43:56;38.25;;;24.20;;
54909;SDS011;63189;51.240;9.964;2024-02-28T01:46:25;42.40;;;25.80;;
54909;SDS011;63189;51.240;9.964;2024-02-28T01:48:55;36.33;;;22.90;;
54909;SDS011;63189;51.240;9.964;2024-02-28T01:51:22;35.60;;;22.23;;
54909;SDS011;63189;51.240;9.964;2024-02-28T01:53:49;38.33;;;23.92;;
54909;SDS011;63189;51.240;9.964;2024-02-28T01:56:17;45.35;;;27.70;;
54909;SDS011;63189;51.240;9.964;2024-02-28T01:58:47;37.78;;;23.67;;
54909;SDS011;63189;51.240;9.964;2024-02-28T02:01:15;39.92;;;24.10;;
54909;SDS011;63189;51.240;9.964;2024-02-28T02:03:45;43.50;;;26.17;;
54909;SDS011;63189;51.240;9.964;2024-02-28T02:06:10;45.88;;;27.80;;
54909;SDS011;63189;51.240;9.964;2024-02-28T02:08:36;40.70;;;24.90;;
54909;SDS011;63189;51.240;9.964;2024-02-28T02:11:03;45.33;;;28.17;;
54909;SDS011;63189;51.240;9.964;2024-02-28T02:13:29;39.97;;;24.30;;
54909;SDS011;63189;51.240;9.964;2024-02-28T02:15:54;41.65;;;24.00;;
54909;SDS011;63189;51.240;9.964;2024-02-28T02:18:19;47.50;;;27.17;;
54909;SDS011;63189;51.240;9.964;2024-02-28T02:20:46;43.95;;;26.85;;
54909;SDS011;63189;51.240;9.964;2024-02-28T02:23:15;43.13;;;25.90;;
54909;SDS011;63189;51.240;9.964;2024-02-28T02:25:44;38.47;;;23.40;;
54909;SDS011;63189;51.240;9.964;2024-02-28T02:28:13;38.13;;;22.52;;
54909;SDS011;63189;51.240;9.964;2024-02-28T02:30:39;40.30;;;23.42;;
54909;SDS011;63189;51.240;9.964;2024-02-28T02:33:05;39.67;;;23.17;;
54909;SDS011;63189;51.240;9.964;2024-02-28T02:35:30;39.85;;;24.27;;
54909;SDS011;63189;51.240;9.964;2024-02-28T02:37:56;36.78;;;22.80;;
54909;SDS011;63189;51.240;9.964;2024-02-28T02:40:21;35.65;;;21.83;;
54909;SDS011;63189;51.240;9.964;2024-02-28T02:42:46;37.75;;;23.45;;
54909;SDS011;63189;51.240;9.964;2024-02-28T02:45:12;42.45;;;25.73;;
54909;SDS011;63189;51.240;9.964;2024-02-28T02:47:37;41.53;;;26.17;;
54909;SDS011;63189;51.240;9.964;2024-02-28T02:50:02;37.15;;;22.95;;
54909;SDS011;63189;51.240;9.964;2024-02-28T02:52:28;34.83;;;20.85;;
54909;SDS011;63189;51.240;9.964;2024-02-28T02:54:53;41.40;;;24.65;;
54909;SDS011;63189;51.240;9.964;2024-02-28T02:57:19;39.97;;;24.00;;
54909;SDS011;63189;51.240;9.964;2024-02-28T02:59:45;36.25;;;21.17;;
54909;SDS011;63189;51.240;9.964;2024-02-28T03:02:10;41.33;;;24.23;;
54909;SDS011;63189;51.240;9.964;2024-02-28T03:04:36;41.03;;;24.40;;
54909;SDS011;63189;51.240;9.964;2024-02-28T03:07:01;36.45;;;22.05;;
54909;SDS011;63189;51.240;9.964;2024-02-28T03:09:26;33.42;;;20.35;;
54909;SDS011;63189;51.240;9.964;2024-02-28T03:11:52;34.60;;;21.02;;
54909;SDS011;63189;51.240;9.964;2024-02-28T03:14:17;31.63;;;19.65;;
54909;SDS011;63189;51.240;9.964;2024-02-28T03:16:44;31.58;;;19.50;;
54909;SDS011;63189;51.240;9.964;2024-02-28T03:19:10;37.42;;;23.63;;
54909;SDS011;63189;51.240;9.964;2024-02-28T03:21:35;36.17;;;22.30;;
54909;SDS011;63189;51.240;9.964;2024-02-28T03:24:01;33.75;;;20.15;;
54909;SDS011;63189;51.240;9.964;2024-02-28T03:26:27;39.22;;;23.10;;
54909;SDS011;63189;51.240;9.964;2024-02-28T03:28:52;40.40;;;24.38;;
54909;SDS011;63189;51.240;9.964;2024-02-28T03:31:18;35.90;;;20.52;;
54909;SDS011;63189;51.240;9.964;2024-02-28T03:33:43;40.88;;;24.67;;
54909;SDS011;63189;51.240;9.964;2024-02-28T03:36:08;38.83;;;22.25;;
54909;SDS011;63189;51.240;9.964;2024-02-28T03:38:34;44.25;;;25.88;;
54909;SDS011;63189;51.240;9.964;2024-02-28T03:40:59;40.80;;;24.17;;
54909;SDS011;63189;51.240;9.964;2024-02-28T03:43:24;41.50;;;23.67;;
54909;SDS011;63189;51.240;9.964;2024-02-28T03:45:50;38.78;;;24.08;;
54909;SDS011;63189;51.240;9.964;2024-02-28T03:48:15;46.17;;;26.38;;
54909;SDS011;63189;51.240;9.964;2024-02-28T03:50:41;38.95;;;22.98;;
54909;SDS011;63189;51.240;9.964;2024-02-28T03:53:06;42.00;;;24.95;;
54909;SDS011;63189;51.240;9.964;2024-02-28T03:55:31;43.25;;;25.58;;
54909;SDS011;63189;51.240;9.964;2024-02-28T03:57:57;39.63;;;23.30;;
54909;SDS011;63189;51.240;9.964;2024-02-28T04:00:22;42.80;;;24.33;;
54909;SDS011;63189;51.240;9.964;2024-02-28T04:02:47;45.15;;;25.65;;
54909;SDS011;63189;51.240;9.964;2024-02-28T04:05:13;43.15;;;25.23;;
54909;SDS011;63189;51.240;9.964;2024-02-28T04:07:38;44.30;;;26.77;;
54909;SDS011;63189;51.240;9.964;2024-02-28T04:10:04;45.45;;;24.65;;
54909;SDS011;63189;51.240;9.964;2024-02-28T04:12:30;46.25;;;25.52;;
54909;SDS011;63189;51.240;9.964;2024-02-28T04:14:56;48.33;;;27.67;;
54909;SDS011;63189;51.240;9.964;2024-02-28T04:17:21;49.28;;;27.48;;
54909;SDS011;63189;51.240;9.964;2024-02-28T04:19:46;49.30;;;27.77;;
54909;SDS011;63189;51.240;9.964;2024-02-28T04:22:12;45.70;;;25.27;;
54909;SDS011;63189;51.240;9.964;2024-02-28T04:24:37;47.05;;;26.88;;
54909;SDS011;63189;51.240;9.964;2024-02-28T04:27:03;46.42;;;26.90;;
54909;SDS011;63189;51.240;9.964;2024-02-28T04:29:30;53.08;;;29.10;;
54909;SDS011;63189;51.240;9.964;2024-02-28T04:31:55;46.08;;;25.73;;
54909;SDS011;63189;51.240;9.964;2024-02-28T04:34:21;46.00;;;25.70;;
54909;SDS011;63189;51.240;9.964;2024-02-28T04:36:46;46.05;;;26.02;;
54909;SDS011;63189;51.240;9.964;2024-02-28T04:39:11;48.17;;;26.08;;
54909;SDS011;63189;51.240;9.964;2024-02-28T04:41:37;50.22;;;26.55;;
54909;SDS011;63189;51.240;9.964;2024-02-28T04:44:02;45.83;;;25.02;;
54909;SDS011;63189;51.240;9.964;2024-02-28T04:46:27;47.47;;;25.98;;
54909;SDS011;63189;51.240;9.964;2024-02-28T04:48:53;47.42;;;24.33;;
54909;SDS011;63189;51.240;9.964;2024-02-28T04:51:18;46.50;;;25.85;;
54909;SDS011;63189;51.240;9.964;2024-02-28T04:53:43;46.50;;;25.85;;
54909;SDS011;63189;51.240;9.964;2024-02-28T04:56:09;50.58;;;26.95;;
54909;SDS011;63189;51.240;9.964;2024-02-28T04:58:35;46.83;;;24.95;;
54909;SDS011;63189;51.240;9.964;2024-02-28T05:01:01;50.83;;;25.73;;
54909;SDS011;63189;51.240;9.964;2024-02-28T05:03:27;49.95;;;27.35;;
54909;SDS011;63189;51.240;9.964;2024-02-28T05:05:52;49.80;;;26.05;;
54909;SDS011;63189;51.240;9.964;2024-02-28T05:08:19;48.38;;;25.17;;
54909;SDS011;63189;51.240;9.964;2024-02-28T05:10:45;53.00;;;26.10;;
54909;SDS011;63189;51.240;9.964;2024-02-28T05:13:10;48.28;;;23.85;;
54909;SDS011;63189;51.240;9.964;2024-02-28T05:15:36;47.95;;;24.60;;
54909;SDS011;63189;51.240;9.964;2024-02-28T05:18:01;48.40;;;25.73;;
54909;SDS011;63189;51.240;9.964;2024-02-28T05:20:26;48.85;;;24.27;;
54909;SDS011;63189;51.240;9.964;2024-02-28T05:22:52;45.00;;;23.98;;
54909;SDS011;63189;51.240;9.964;2024-02-28T05:25:17;38.42;;;19.95;;
54909;SDS011;63189;51.240;9.964;2024-02-28T05:27:42;44.50;;;22.65;;
54909;SDS011;63189;51.240;9.964;2024-02-28T05:30:08;42.70;;;21.50;;
54909;SDS011;63189;51.240;9.964;2024-02-28T05:32:34;45.05;;;21.15;;
54909;SDS011;63189;51.240;9.964;2024-02-28T05:34:59;49.78;;;22.25;;
54909;SDS011;63189;51.240;9.964;2024-02-28T05:37:24;47.10;;;22.77;;
54909;SDS011;63189;51.240;9.964;2024-02-28T05:39:50;46.67;;;21.02;;
54909;SDS011;63189;51.240;9.964;2024-02-28T05:42:15;59.30;;;22.00;;
54909;SDS011;63189;51.240;9.964;2024-02-28T05:44:46;50.33;;;21.48;;
54909;SDS011;63189;51.240;9.964;2024-02-28T05:47:15;63.95;;;24.55;;
54909;SDS011;63189;51.240;9.964;2024-02-28T05:49:40;59.65;;;22.00;;
54909;SDS011;63189;51.240;9.964;2024-02-28T05:52:06;88.10;;;20.88;;
54909;SDS011;63189;51.240;9.964;2024-02-28T05:54:31;38.83;;;19.70;;
54909;SDS011;63189;51.240;9.964;2024-02-28T05:56:59;39.55;;;20.27;;
54909;SDS011;63189;51.240;9.964;2024-02-28T05:59:24;46.95;;;22.38;;
54909;SDS011;63189;51.240;9.964;2024-02-28T06:01:50;70.72;;;19.95;;
54909;SDS011;63189;51.240;9.964;2024-02-28T06:04:15;47.38;;;20.60;;
54909;SDS011;63189;51.240;9.964;2024-02-28T06:06:41;44.58;;;18.58;;
54909;SDS011;63189;51.240;9.964;2024-02-28T06:09:07;56.63;;;19.42;;
54909;SDS011;63189;51.240;9.964;2024-02-28T06:11:32;35.67;;;17.83;;
54909;SDS011;63189;51.240;9.964;2024-02-28T06:13:58;38.13;;;18.60;;
54909;SDS011;63189;51.240;9.964;2024-02-28T06:16:23;44.92;;;19.50;;
54909;SDS011;63189;51.240;9.964;2024-02-28T06:18:49;37.38;;;17.70;;
54909;SDS011;63189;51.240;9.964;2024-02-28T06:21:15;57.75;;;20.10;;
54909;SDS011;63189;51.240;9.964;2024-02-28T06:23:40;50.55;;;21.25;;
54909;SDS011;63189;51.240;9.964;2024-02-28T06:26:06;39.28;;;17.77;;
54909;SDS011;63189;51.240;9.964;2024-02-28T06:28:31;36.55;;;19.35;;
54909;SDS011;63189;51.240;9.964;2024-02-28T06:30:57;136.57;;;22.42;;
54909;SDS011;63189;51.240;9.964;2024-02-28T06:33:22;120.38;;;21.25;;
54909;SDS011;63189;51.240;9.964;2024-02-28T06:35:48;37.83;;;17.10;;
54909;SDS011;63189;51.240;9.964;2024-02-28T06:38:13;40.35;;;19.05;;
54909;SDS011;63189;51.240;9.964;2024-02-28T06:40:39;51.85;;;19.02;;
54909;SDS011;63189;51.240;9.964;2024-02-28T06:43:04;41.45;;;18.05;;
54909;SDS011;63189;51.240;9.964;2024-02-28T06:45:30;127.60;;;21.40;;
54909;SDS011;63189;51.240;9.964;2024-02-28T06:47:55;90.18;;;21.70;;
54909;SDS011;63189;51.240;9.964;2024-02-28T06:50:20;178.40;;;25.52;;
54909;SDS011;63189;51.240;9.964;2024-02-28T06:52:46;37.70;;;18.85;;
54909;SDS011;63189;51.240;9.964;2024-02-28T06:55:11;38.53;;;18.52;;
54909;SDS011;63189;51.240;9.964;2024-02-28T06:57:39;108.40;;;22.63;;
54909;SDS011;63189;51.240;9.964;2024-02-28T07:00:07;54.70;;;22.20;;
54909;SDS011;63189;51.240;9.964;2024-02-28T07:02:36;66.85;;;21.05;;
54909;SDS011;63189;51.240;9.964;2024-02-28T07:05:02;39.88;;;20.08;;
54909;SDS011;63189;51.240;9.964;2024-02-28T07:07:29;37.53;;;19.58;;
54909;SDS011;63189;51.240;9.964;2024-02-28T07:09:55;53.42;;;22.38;;
54909;SDS011;63189;51.240;9.964;2024-02-28T07:12:21;43.22;;;21.05;;
54909;SDS011;63189;51.240;9.964;2024-02-28T07:14:46;48.92;;;23.63;;
54909;SDS011;63189;51.240;9.964;2024-02-28T07:17:12;49.67;;;21.80;;
54909;SDS011;63189;51.240;9.964;2024-02-28T07:19:37;54.15;;;23.05;;
54909;SDS011;63189;51.240;9.964;2024-02-28T07:22:03;60.50;;;23.13;;
54909;SDS011;63189;51.240;9.964;2024-02-28T07:24:30;118.10;;;25.00;;
54909;SDS011;63189;51.240;9.964;2024-02-28T07:26:56;41.88;;;21.95;;
54909;SDS011;63189;51.240;9.964;2024-02-28T07:29:22;57.05;;;24.58;;
54909;SDS011;63189;51.240;9.964;2024-02-28T07:31:47;37.63;;;20.27;;
54909;SDS011;63189;51.240;9.964;2024-02-28T07:34:14;48.22;;;24.45;;
54909;SDS011;63189;51.240;9.964;2024-02-28T07:36:40;48.90;;;22.40;;
54909;SDS011;63189;51.240;9.964;2024-02-28T07:39:05;51.58;;;25.92;;
54909;SDS011;63189;51.240;9.964;2024-02-28T07:41:30;45.78;;;24.05;;
54909;SDS011;63189;51.240;9.964;2024-02-28T07:43:57;47.47;;;24.23;;
54909;SDS011;63189;51.240;9.964;2024-02-28T07:46:22;50.28;;;25.60;;
54909;SDS011;63189;51.240;9.964;2024-02-28T07:48:47;47.83;;;24.60;;
54909;SDS011;63189;51.240;9.964;2024-02-28T07:51:13;48.45;;;24.77;;
54909;SDS011;63189;51.240;9.964;2024-02-28T07:53:40;45.08;;;23.15;;
54909;SDS011;63189;51.240;9.964;2024-02-28T07:56:05;48.75;;;21.52;;
54909;SDS011;63189;51.240;9.964;2024-02-28T07:58:31;47.20;;;22.63;;
54909;SDS011;63189;51.240;9.964;2024-02-28T08:00:56;62.47;;;24.58;;
54909;SDS011;63189;51.240;9.964;2024-02-28T08:03:21;97.35;;;23.25;;
54909;SDS011;63189;51.240;9.964;2024-02-28T08:05:47;86.32;;;26.52;;
54909;SDS011;63189;51.240;9.964;2024-02-28T08:08:13;103.72;;;28.42;;
54909;SDS011;63189;51.240;9.964;2024-02-28T08:10:39;48.10;;;21.45;;
54909;SDS011;63189;51.240;9.964;2024-02-28T08:13:05;60.20;;;24.20;;
54909;SDS011;63189;51.240;9.964;2024-02-28T08:15:30;56.83;;;22.85;;
54909;SDS011;63189;51.240;9.964;2024-02-28T08:17:56;44.88;;;22.02;;
54909;SDS011;63189;51.240;9.964;2024-02-28T08:20:21;50.83;;;23.13;;
54909;SDS011;63189;51.240;9.964;2024-02-28T08:22:47;43.60;;;21.55;;
54909;SDS011;63189;51.240;9.964;2024-02-28T08:25:12;42.75;;;21.48;;
54909;SDS011;63189;51.240;9.964;2024-02-28T08:27:39;46.28;;;22.75;;
54909;SDS011;63189;51.240;9.964;2024-02-28T08:30:04;41.03;;;21.98;;
54909;SDS011;63189;51.240;9.964;2024-02-28T08:32:33;43.65;;;21.73;;
54909;SDS011;63189;51.240;9.964;2024-02-28T08:34:59;31.73;;;16.60;;
54909;SDS011;63189;51.240;9.964;2024-02-28T08:37:24;33.92;;;16.98;;
54909;SDS011;63189;51.240;9.964;2024-02-28T08:39:51;32.50;;;17.55;;
54909;SDS011;63189;51.240;9.964;2024-02-28T08:42:16;31.85;;;17.33;;
54909;SDS011;63189;51.240;9.964;2024-02-28T08:44:42;34.28;;;18.25;;
54909;SDS011;63189;51.240;9.964;2024-02-28T08:47:07;32.72;;;18.17;;
54909;SDS011;63189;51.240;9.964;2024-02-28T08:49:34;34.20;;;18.75;;
54909;SDS011;63189;51.240;9.964;2024-02-28T08:52:00;36.85;;;18.80;;
54909;SDS011;63189;51.240;9.964;2024-02-28T08:54:25;35.08;;;18.13;;
54909;SDS011;63189;51.240;9.964;2024-02-28T08:56:51;43.95;;;21.55;;
54909;SDS011;63189;51.240;9.964;2024-02-28T08:59:16;34.35;;;17.58;;
54909;SDS011;63189;51.240;9.964;2024-02-28T09:01:41;40.53;;;20.17;;
54909;SDS011;63189;51.240;9.964;2024-02-28T09:04:07;46.95;;;23.67;;
54909;SDS011;63189;51.240;9.964;2024-02-28T09:06:32;36.97;;;19.45;;
54909;SDS011;63189;51.240;9.964;2024-02-28T09:08:58;37.75;;;20.08;;
54909;SDS011;63189;51.240;9.964;2024-02-28T09:11:23;39.63;;;21.05;;
54909;SDS011;63189;51.240;9.964;2024-02-28T09:13:50;31.95;;;16.73;;
54909;SDS011;63189;51.240;9.964;2024-02-28T09:16:15;35.80;;;19.73;;
54909;SDS011;63189;51.240;9.964;2024-02-28T09:18:40;33.67;;;17.65;;
54909;SDS011;63189;51.240;9.964;2024-02-28T09:21:07;39.53;;;19.63;;
54909;SDS011;63189;51.240;9.964;2024-02-28T09:23:33;36.83;;;18.33;;
54909;SDS011;63189;51.240;9.964;2024-02-28T09:26:02;32.42;;;17.52;;
54909;SDS011;63189;51.240;9.964;2024-02-28T09:28:28;33.80;;;17.13;;
54909;SDS011;63189;51.240;9.964;2024-02-28T09:30:53;32.13;;;17.33;;
54909;SDS011;63189;51.240;9.964;2024-02-28T09:33:19;30.60;;;17.25;;
54909;SDS011;63189;51.240;9.964;2024-02-28T09:35:44;34.22;;;18.10;;
54909;SDS011;63189;51.240;9.964;2024-02-28T09:38:10;30.67;;;16.27;;
54909;SDS011;63189;51.240;9.964;2024-02-28T09:40:36;34.40;;;18.33;;
54909;SDS011;63189;51.240;9.964;2024-02-28T09:43:01;33.03;;;17.52;;
54909;SDS011;63189;51.240;9.964;2024-02-28T09:45:28;34.25;;;17.70;;
54909;SDS011;63189;51.240;9.964;2024-02-28T09:47:56;32.60;;;19.17;;
54909;SDS011;63189;51.240;9.964;2024-02-28T09:50:22;28.83;;;17.05;;
54909;SDS011;63189;51.240;9.964;2024-02-28T09:52:48;27.42;;;16.52;;
54909;SDS011;63189;51.240;9.964;2024-02-28T09:55:13;27.35;;;15.48;;
54909;SDS011;63189;51.240;9.964;2024-02-28T09:57:39;22.52;;;13.38;;
54909;SDS011;63189;51.240;9.964;2024-02-28T10:00:06;32.13;;;16.90;;
54909;SDS011;63189;51.240;9.964;2024-02-28T10:02:32;27.98;;;16.05;;
54909;SDS011;63189;51.240;9.964;2024-02-28T10:04:59;34.88;;;18.20;;
54909;SDS011;63189;51.240;9.964;2024-02-28T10:07:25;31.25;;;17.23;;
54909;SDS011;63189;51.240;9.964;2024-02-28T10:09:50;31.02;;;17.15;;
54909;SDS011;63189;51.240;9.964;2024-02-28T10:12:16;25.52;;;14.95;;
54909;SDS011;63189;51.240;9.964;2024-02-28T10:14:41;26.05;;;14.85;;
54909;SDS011;63189;51.240;9.964;2024-02-28T10:17:06;31.35;;;16.98;;
54909;SDS011;63189;51.240;9.964;2024-02-28T10:19:33;25.45;;;14.52;;
54909;SDS011;63189;51.240;9.964;2024-02-28T10:21:58;30.98;;;16.75;;
54909;SDS011;63189;51.240;9.964;2024-02-28T10:24:24;25.48;;;15.05;;
54909;SDS011;63189;51.240;9.964;2024-02-28T10:26:49;26.75;;;16.08;;
54909;SDS011;63189;51.240;9.964;2024-02-28T10:29:22;24.88;;;14.88;;
54909;SDS011;63189;51.240;9.964;2024-02-28T10:31:48;25.75;;;14.65;;
54909;SDS011;63189;51.240;9.964;2024-02-28T10:34:15;27.20;;;16.35;;
54909;SDS011;63189;51.240;9.964;2024-02-28T10:36:41;25.42;;;14.48;;
54909;SDS011;63189;51.240;9.964;2024-02-28T10:39:08;27.95;;;15.35;;
54909;SDS011;63189;51.240;9.964;2024-02-28T10:41:36;27.70;;;16.17;;
54909;SDS011;63189;51.240;9.964;2024-02-28T10:44:02;26.08;;;14.73;;
54909;SDS011;63189;51.240;9.964;2024-02-28T10:46:28;26.33;;;15.50;;
54909;SDS011;63189;51.240;9.964;2024-02-28T10:48:54;29.20;;;16.40;;
54909;SDS011;63189;51.240;9.964;2024-02-28T10:51:26;27.38;;;16.52;;
54909;SDS011;63189;51.240;9.964;2024-02-28T10:53:59;25.05;;;14.55;;
54909;SDS011;63189;51.240;9.964;2024-02-28T10:56:32;26.42;;;15.52;;
54909;SDS011;63189;51.240;9.964;2024-02-28T10:58:58;24.20;;;15.18;;
54909;SDS011;63189;51.240;9.964;2024-02-28T11:01:25;24.80;;;15.07;;
54909;SDS011;63189;51.240;9.964;2024-02-28T11:03:50;23.73;;;14.20;;
54909;SDS011;63189;51.240;9.964;2024-02-28T11:06:20;25.38;;;14.75;;
54909;SDS011;63189;51.240;9.964;2024-02-28T11:08:47;25.73;;;15.15;;
54909;SDS011;63189;51.240;9.964;2024-02-28T11:11:22;30.27;;;17.85;;
54909;SDS011;63189;51.240;9.964;2024-02-28T11:13:54;23.33;;;14.20;;
54909;SDS011;63189;51.240;9.964;2024-02-28T11:16:27;28.10;;;15.70;;
54909;SDS011;63189;51.240;9.964;2024-02-28T11:18:55;26.05;;;15.00;;
54909;SDS011;63189;51.240;9.964;2024-02-28T11:21:25;25.50;;;14.88;;
54909;SDS011;63189;51.240;9.964;2024-02-28T11:23:57;25.88;;;15.88;;
54909;SDS011;63189;51.240;9.964;2024-02-28T11:26:23;28.92;;;16.95;;
54909;SDS011;63189;51.240;9.964;2024-02-28T11:28:49;40.65;;;20.73;;
54909;SDS011;63189;51.240;9.964;2024-02-28T11:31:14;30.98;;;17.33;;
54909;SDS011;63189;51.240;9.964;2024-02-28T11:33:41;26.70;;;15.80;;
54909;SDS011;63189;51.240;9.964;2024-02-28T11:36:06;23.00;;;13.90;;
54909;SDS011;63189;51.240;9.964;2024-02-28T11:38:32;25.42;;;14.70;;
54909;SDS011;63189;51.240;9.964;2024-02-28T11:41:03;25.10;;;15.00;;
54909;SDS011;63189;51.240;9.964;2024-02-28T11:43:28;20.20;;;12.18;;
54909;SDS011;63189;51.240;9.964;2024-02-28T11:45:56;23.33;;;14.60;;
54909;SDS011;63189;51.240;9.964;2024-02-28T11:48:22;25.13;;;14.48;;
54909;SDS011;63189;51.240;9.964;2024-02-28T11:50:47;25.73;;;15.35;;
54909;SDS011;63189;51.240;9.964;2024-02-28T11:53:13;24.63;;;15.15;;
54909;SDS011;63189;51.240;9.964;2024-02-28T11:55:38;24.45;;;14.38;;
54909;SDS011;63189;51.240;9.964;2024-02-28T11:58:09;25.10;;;14.38;;
54909;SDS011;63189;51.240;9.964;2024-02-28T12:00:34;21.77;;;12.55;;
54909;SDS011;63189;51.240;9.964;2024-02-28T12:03:10;23.30;;;13.23;;
54909;SDS011;63189;51.240;9.964;2024-02-28T12:05:37;27.05;;;14.20;;
54909;SDS011;63189;51.240;9.964;2024-02-28T12:08:03;24.33;;;13.93;;
54909;SDS011;63189;51.240;9.964;2024-02-28T12:10:29;25.08;;;14.38;;
54909;SDS011;63189;51.240;9.964;2024-02-28T12:13:00;24.42;;;13.48;;
54909;SDS011;63189;51.240;9.964;2024-02-28T12:15:27;25.30;;;14.48;;
54909;SDS011;63189;51.240;9.964;2024-02-28T12:17:54;20.13;;;11.35;;
54909;SDS011;63189;51.240;9.964;2024-02-28T12:20:19;22.10;;;13.23;;
54909;SDS011;63189;51.240;9.964;2024-02-28T12:22:45;23.55;;;14.25;;
54909;SDS011;63189;51.240;9.964;2024-02-28T12:25:10;22.40;;;13.82;;
54909;SDS011;63189;51.240;9.964;2024-02-28T12:27:36;24.05;;;14.02;;
54909;SDS011;63189;51.240;9.964;2024-02-28T12:30:01;21.88;;;12.75;;
54909;SDS011;63189;51.240;9.964;2024-02-28T12:32:27;24.60;;;14.27;;
54909;SDS011;63189;51.240;9.964;2024-02-28T12:34:52;21.05;;;12.00;;
54909;SDS011;63189;51.240;9.964;2024-02-28T12:37:18;21.63;;;13.18;;
54909;SDS011;63189;51.240;9.964;2024-02-28T12:39:44;25.90;;;14.98;;
54909;SDS011;63189;51.240;9.964;2024-02-28T12:42:09;22.67;;;13.93;;
54909;SDS011;63189;51.240;9.964;2024-02-28T12:44:34;22.30;;;13.52;;
54909;SDS011;63189;51.240;9.964;2024-02-28T12:47:00;23.55;;;14.10;;
54909;SDS011;63189;51.240;9.964;2024-02-28T12:49:25;20.30;;;12.48;;
54909;SDS011;63189;51.240;9.964;2024-02-28T12:51:50;22.65;;;13.25;;
54909;SDS011;63189;51.240;9.964;2024-02-28T12:54:16;22.38;;;13.57;;
54909;SDS011;63189;51.240;9.964;2024-02-28T12:56:42;20.90;;;13.00;;
54909;SDS011;63189;51.240;9.964;2024-02-28T12:59:08;19.42;;;11.93;;
54909;SDS011;63189;51.240;9.964;2024-02-28T13:01:34;21.98;;;13.05;;
54909;SDS011;63189;51.240;9.964;2024-02-28T13:03:59;25.70;;;14.25;;
54909;SDS011;63189;51.240;9.964;2024-02-28T13:06:25;21.02;;;13.05;;
54909;SDS011;63189;51.240;9.964;2024-02-28T13:08:50;25.00;;;15.25;;
54909;SDS011;63189;51.240;9.964;2024-02-28T13:11:19;20.73;;;13.10;;
54909;SDS011;63189;51.240;9.964;2024-02-28T13:13:46;24.15;;;13.93;;
54909;SDS011;63189;51.240;9.964;2024-02-28T13:16:12;23.80;;;13.93;;
54909;SDS011;63189;51.240;9.964;2024-02-28T13:18:37;23.30;;;13.98;;
54909;SDS011;63189;51.240;9.964;2024-02-28T13:21:03;22.00;;;13.23;;
54909;SDS011;63189;51.240;9.964;2024-02-28T13:23:29;20.73;;;12.98;;
54909;SDS011;63189;51.240;9.964;2024-02-28T13:25:56;23.60;;;13.63;;
54909;SDS011;63189;51.240;9.964;2024-02-28T13:28:21;21.65;;;13.05;;
54909;SDS011;63189;51.240;9.964;2024-02-28T13:30:54;21.75;;;12.18;;
54909;SDS011;63189;51.240;9.964;2024-02-28T13:33:22;19.60;;;12.18;;
54909;SDS011;63189;51.240;9.964;2024-02-28T13:35:48;17.38;;;11.07;;
54909;SDS011;63189;51.240;9.964;2024-02-28T13:38:13;21.90;;;13.23;;
54909;SDS011;63189;51.240;9.964;2024-02-28T13:40:38;19.20;;;11.63;;
54909;SDS011;63189;51.240;9.964;2024-02-28T13:43:04;21.23;;;12.70;;
54909;SDS011;63189;51.240;9.964;2024-02-28T13:45:29;19.30;;;12.70;;
54909;SDS011;63189;51.240;9.964;2024-02-28T13:47:54;22.10;;;11.88;;
54909;SDS011;63189;51.240;9.964;2024-02-28T13:50:20;21.95;;;13.48;;
54909;SDS011;63189;51.240;9.964;2024-02-28T13:52:45;20.95;;;11.80;;
54909;SDS011;63189;51.240;9.964;2024-02-28T13:55:11;20.83;;;12.57;;
54909;SDS011;63189;51.240;9.964;2024-02-28T13:57:38;18.38;;;11.25;;
54909;SDS011;63189;51.240;9.964;2024-02-28T14:00:04;23.27;;;13.68;;
54909;SDS011;63189;51.240;9.964;2024-02-28T14:02:34;19.63;;;11.38;;
54909;SDS011;63189;51.240;9.964;2024-02-28T14:05:00;19.00;;;11.38;;
54909;SDS011;63189;51.240;9.964;2024-02-28T14:07:25;18.27;;;11.45;;
54909;SDS011;63189;51.240;9.964;2024-02-28T14:09:51;22.70;;;12.85;;
54909;SDS011;63189;51.240;9.964;2024-02-28T14:12:16;17.83;;;11.13;;
54909;SDS011;63189;51.240;9.964;2024-02-28T14:14:41;19.00;;;11.60;;